Time;durP1;ratioP1;P1;durP2;ratioP2;P2;SDS_P1;SDS_P2;PMS_P1;PMS_P2;Temp;Humidity;BMP_temperature;BMP_pressure;BME280_temperature;BME280_humidity;BME280_pressure;Samples;Min_cycle;Max_cycle;Signal;HPM_P1;HPM_P2
2021/10/29 00:02:01;;;;;;;9.10;5.93;;;;;;;8.06;58.89;100759.34;7974133;28;20108;-68
2021/10/29 00:05:52;;;;;;;9.18;6.25;;;;;;;8.11;59.00;100765.22;7973732;28;20486;-68
2021/10/29 00:09:43;;;;;;;11.27;6.45;;;;;;;8.11;58.78;100770.44;7974595;28;20041;-68
2021/10/29 00:13:33;;;;;;;14.18;7.43;;;;;;;8.09;58.96;100767.88;7981987;28;20398;-66
2021/10/29 00:17:24;;;;;;;14.25;7.18;;;;;;;8.05;59.21;100748.06;7978376;28;20043;-68
2021/10/29 00:21:14;;;;;;;10.25;6.35;;;;;;;8.08;59.03;100763.59;7978808;28;20123;-67
2021/10/29 00:25:05;;;;;;;10.35;6.40;;;;;;;8.06;58.81;100751.50;7979189;28;20512;-67
2021/10/29 00:28:56;;;;;;;10.43;6.85;;;;;;;8.04;59.09;100761.25;7979552;28;20037;-68
2021/10/29 00:32:47;;;;;;;8.85;5.97;;;;;;;8.01;59.26;100764.84;7979414;28;20116;-67
2021/10/29 00:36:37;;;;;;;9.88;6.18;;;;;;;8.02;59.44;100763.09;7978507;28;20394;-68
2021/10/29 00:40:28;;;;;;;11.07;6.43;;;;;;;8.02;59.06;100763.94;7978305;28;20041;-68
2021/10/29 00:44:24;;;;;;;11.10;5.93;;;;;;;8.03;59.16;100754.31;7978711;28;20033;-69
2021/10/29 00:48:15;;;;;;;9.65;6.28;;;;;;;7.93;59.36;100744.38;7978432;28;20029;-68
2021/10/29 00:52:06;;;;;;;9.50;6.05;;;;;;;8.02;59.34;100752.63;7978784;28;20610;-67
2021/10/29 00:55:58;;;;;;;11.52;6.13;;;;;;;8.01;59.21;100757.00;7978273;28;20037;-68
2021/10/29 00:59:50;;;;;;;11.60;6.95;;;;;;;7.99;59.30;100747.56;7979071;28;20060;-68
2021/10/29 01:03:42;;;;;;;9.52;6.05;;;;;;;8.00;59.51;100751.88;7977201;28;20041;-68
2021/10/29 01:07:33;;;;;;;10.75;6.18;;;;;;;8.01;59.37;100746.53;7978295;28;20042;-68
2021/10/29 01:11:26;;;;;;;9.35;6.05;;;;;;;8.01;59.20;100751.78;7978383;28;20036;-68
2021/10/29 01:15:17;;;;;;;9.75;6.13;;;;;;;8.01;59.46;100748.31;7977584;28;20441;-68
2021/10/29 01:19:08;;;;;;;10.60;6.57;;;;;;;7.98;59.62;100741.50;7974379;28;20037;-67
2021/10/29 01:22:59;;;;;;;8.25;5.78;;;;;;;7.93;59.51;100735.69;7976770;28;20037;-68
2021/10/29 01:26:50;;;;;;;7.65;5.50;;;;;;;7.97;59.43;100739.81;7977772;28;20108;-68
2021/10/29 01:30:40;;;;;;;10.35;6.38;;;;;;;7.96;59.38;100730.28;7975353;28;20083;-68
2021/10/29 01:34:32;;;;;;;12.10;6.57;;;;;;;7.98;59.29;100738.03;7977218;28;20053;-67
2021/10/29 01:38:38;;;;;;;10.65;6.13;;;;;;;7.93;59.42;100722.59;7983277;28;20045;-67
2021/10/29 01:42:29;;;;;;;8.93;5.68;;;;;;;7.93;59.43;100723.44;7969441;28;20041;-67
2021/10/29 01:46:19;;;;;;;9.05;6.10;;;;;;;7.94;59.42;100724.28;7977350;28;20044;-67
2021/10/29 01:50:10;;;;;;;8.05;5.82;;;;;;;7.92;59.48;100720.91;7976766;28;20037;-69
2021/10/29 01:54:01;;;;;;;7.57;5.38;;;;;;;7.92;59.80;100715.66;7976760;28;20107;-69
2021/10/29 01:57:52;;;;;;;9.07;5.88;;;;;;;7.87;59.52;100708.13;7976824;28;20559;-68
2021/10/29 02:01:42;;;;;;;9.27;6.32;;;;;;;7.93;59.79;100709.53;7976382;28;20367;-67
2021/10/29 02:05:33;;;;;;;8.07;5.38;;;;;;;7.91;59.91;100693.09;7976367;28;20112;-69
2021/10/29 02:09:23;;;;;;;7.72;4.95;;;;;;;7.90;59.81;100691.41;7974746;28;20082;-68
2021/10/29 02:13:14;;;;;;;8.18;5.68;;;;;;;7.89;59.58;100695.78;7977417;28;20045;-66
2021/10/29 02:17:04;;;;;;;10.32;6.15;;;;;;;7.90;59.75;100688.78;7976232;28;20030;-67
2021/10/29 02:20:56;;;;;;;9.35;6.00;;;;;;;7.88;59.82;100682.78;7976549;28;20037;-68
2021/10/29 02:24:47;;;;;;;9.82;5.80;;;;;;;7.85;59.65;100678.59;7975609;28;20041;-68
2021/10/29 02:28:38;;;;;;;11.10;5.82;;;;;;;7.85;59.71;100673.34;7976341;28;20116;-68
2021/10/29 02:32:28;;;;;;;8.23;5.63;;;;;;;7.83;59.67;100663.91;7975265;28;20029;-68
2021/10/29 02:36:20;;;;;;;7.43;4.82;;;;;;;7.83;59.55;100656.91;7974331;28;20052;-67
2021/10/29 02:40:10;;;;;;;8.00;5.50;;;;;;;7.80;59.76;100645.78;7975187;28;20037;-68
2021/10/29 02:44:01;;;;;;;9.68;5.78;;;;;;;7.82;59.52;100646.53;7975488;28;20152;-69
2021/10/29 02:47:52;;;;;;;9.52;5.75;;;;;;;7.81;59.62;100637.84;7975854;28;20044;-69
2021/10/29 02:51:42;;;;;;;8.27;5.18;;;;;;;7.80;59.65;100643.16;7975989;28;20091;-68
2021/10/29 02:55:33;;;;;;;9.02;5.78;;;;;;;7.77;59.69;100643.34;7975385;28;20398;-68
2021/10/29 02:59:24;;;;;;;8.95;5.40;;;;;;;7.75;59.58;100625.16;7974996;28;20041;-67
2021/10/29 03:03:15;;;;;;;7.95;5.35;;;;;;;7.80;59.97;100636.16;7974942;28;20478;-68
2021/10/29 03:07:05;;;;;;;7.28;4.80;;;;;;;7.77;59.92;100625.88;7974287;28;20022;-68
2021/10/29 03:10:56;;;;;;;9.43;5.65;;;;;;;7.80;59.60;100623.06;7976000;28;21522;-66
2021/10/29 03:14:46;;;;;;;8.48;5.60;;;;;;;7.80;60.01;100620.47;7981290;28;20060;-67
2021/10/29 03:18:37;;;;;;;11.80;5.75;;;;;;;7.81;59.80;100618.69;7974405;28;20034;-68
2021/10/29 03:22:28;;;;;;;8.80;5.68;;;;;;;7.80;60.09;100612.63;7973129;28;20038;-67
2021/10/29 03:26:19;;;;;;;7.88;5.35;;;;;;;7.82;59.67;100612.53;7973247;28;20044;-67
2021/10/29 03:30:11;;;;;;;10.02;6.20;;;;;;;7.83;59.98;100609.84;7972930;28;20102;-68
2021/10/29 03:34:01;;;;;;;8.85;5.30;;;;;;;7.83;59.82;100612.47;7972661;28;20044;-68
2021/10/29 03:41:57;;;;;;;9.88;5.75;;;;;;;7.83;59.70;100596.78;7972837;28;20037;-68
2021/10/29 03:49:53;;;;;;;9.68;5.50;;;;;;;7.81;59.73;100593.38;7980762;28;20044;-68
2021/10/29 03:53:53;;;;;;;11.52;6.22;;;;;;;7.80;60.09;100596.09;7980498;28;20136;-68
2021/10/29 03:57:44;;;;;;;8.35;5.78;;;;;;;7.78;59.98;100595.34;7979934;28;20044;-68
2021/10/29 04:01:34;;;;;;;8.50;5.50;;;;;;;7.79;59.75;100597.03;7980772;28;20037;-67
2021/10/29 04:05:26;;;;;;;9.85;5.53;;;;;;;7.78;59.87;100597.97;7978370;28;20033;-68
2021/10/29 04:09:16;;;;;;;7.20;4.97;;;;;;;7.75;60.02;100596.38;7978932;28;20049;-67
2021/10/29 04:13:10;;;;;;;9.95;5.93;;;;;;;7.79;60.06;100600.50;7979749;28;20079;-68
2021/10/29 04:17:00;;;;;;;8.75;5.30;;;;;;;7.77;59.80;100591.88;7978735;28;20510;-67
2021/10/29 04:20:51;;;;;;;11.05;5.90;;;;;;;7.76;59.79;100590.19;7979465;28;20059;-68
2021/10/29 04:24:41;;;;;;;7.40;5.20;;;;;;;7.77;59.98;100597.13;7979426;28;20060;-67
2021/10/29 04:28:33;;;;;;;9.23;5.32;;;;;;;7.76;59.91;100587.59;7979464;28;20051;-68
2021/10/29 04:32:24;;;;;;;9.77;5.50;;;;;;;7.74;59.78;100581.63;7977695;28;20116;-69
2021/10/29 04:36:15;;;;;;;8.57;5.63;;;;;;;7.78;60.02;100590.97;7979713;28;20404;-68
2021/10/29 04:40:06;;;;;;;9.48;5.18;;;;;;;7.78;59.72;100585.72;7979018;28;20037;-68
2021/10/29 04:43:57;;;;;;;10.00;5.70;;;;;;;7.78;60.08;100583.13;7978986;28;20037;-68
2021/10/29 04:47:48;;;;;;;8.68;5.18;;;;;;;7.77;60.10;100573.59;7979146;28;20033;-67
2021/10/29 04:51:38;;;;;;;10.25;5.60;;;;;;;7.75;60.16;100564.16;7978744;28;20029;-68
2021/10/29 04:55:29;;;;;;;9.43;5.63;;;;;;;7.76;59.68;100566.66;7977316;28;20047;-68
2021/10/29 04:59:20;;;;;;;13.60;6.35;;;;;;;7.76;60.21;100569.28;7977907;28;20029;-67
2021/10/29 05:03:10;;;;;;;8.93;5.70;;;;;;;7.76;60.08;100566.66;7977296;28;20096;-68
2021/10/29 05:07:01;;;;;;;12.82;6.05;;;;;;;7.75;60.25;100561.53;7978068;28;20141;-67
2021/10/29 05:10:52;;;;;;;7.53;4.90;;;;;;;7.76;60.21;100563.19;7978032;28;20037;-66
2021/10/29 05:14:42;;;;;;;10.25;5.78;;;;;;;7.76;60.09;100564.03;7980691;28;20557;-66
2021/10/29 05:18:33;;;;;;;7.47;5.25;;;;;;;7.78;60.05;100551.75;7978089;28;20405;-67
2021/10/29 05:22:23;;;;;;;9.43;5.70;;;;;;;7.80;59.86;100557.69;7978001;28;20167;-65
2021/10/29 05:26:14;;;;;;;8.85;5.55;;;;;;;7.80;60.17;100549.00;7977905;28;20030;-68
2021/10/29 05:30:07;;;;;;;10.95;5.90;;;;;;;7.82;60.15;100544.53;7977630;28;20459;-67
2021/10/29 05:33:58;;;;;;;10.15;6.10;;;;;;;7.78;60.15;100541.28;7977441;28;20120;-67
2021/10/29 05:37:49;;;;;;;11.35;6.03;;;;;;;7.80;59.96;100552.47;7977167;28;20036;-66
2021/10/29 05:41:42;;;;;;;10.23;5.18;;;;;;;7.80;60.19;100546.41;7977462;28;20045;-66
2021/10/29 05:45:33;;;;;;;9.32;5.70;;;;;;;7.81;59.90;100548.09;7976112;28;20079;-67
2021/10/29 05:49:24;;;;;;;12.07;6.05;;;;;;;7.80;59.83;100546.41;7975581;28;20211;-67
2021/10/29 05:57:23;;;;;;;8.93;5.55;;;;;;;7.80;60.10;100547.25;7976409;28;20041;-67
2021/10/29 06:01:14;;;;;;;9.20;5.50;;;;;;;7.79;60.06;100534.28;7976097;28;20071;-67
2021/10/29 06:05:05;;;;;;;11.43;5.55;;;;;;;7.81;60.03;100535.00;7973518;28;20041;-67
2021/10/29 06:08:56;;;;;;;11.45;5.90;;;;;;;7.80;60.17;100530.72;7976046;28;20817;-67
2021/10/29 06:12:47;;;;;;;12.05;6.05;;;;;;;7.80;60.03;100531.56;7971220;28;20041;-67
2021/10/29 06:16:39;;;;;;;11.27;6.05;;;;;;;7.80;60.13;100539.41;7970797;28;20025;-67
2021/10/29 06:20:31;;;;;;;10.35;6.13;;;;;;;7.80;59.88;100528.94;7972136;28;20037;-67
2021/10/29 06:24:22;;;;;;;13.05;6.57;;;;;;;7.80;60.17;100522.88;7973572;28;20041;-67
2021/10/29 06:28:28;;;;;;;10.23;6.00;;;;;;;7.78;60.28;100524.75;7975631;28;20172;-67
2021/10/29 06:32:20;;;;;;;10.60;6.32;;;;;;;7.82;59.72;100534.09;7974080;28;20041;-66
2021/10/29 06:36:10;;;;;;;11.68;6.38;;;;;;;7.82;60.00;100531.47;7971589;28;20075;-67
2021/10/29 06:40:01;;;;;;;10.70;6.15;;;;;;;7.84;59.95;100532.19;7970773;28;20025;-67
2021/10/29 06:47:50;;;;;;;10.63;5.93;;;;;;;7.84;60.01;100519.97;7974001;28;20482;-67
2021/10/29 07:04:16;;;;;;;12.65;7.05;;;;;;;7.82;60.12;100514.00;7975873;28;20029;-67
2021/10/29 07:39:55;;;;;;;12.57;6.78;;;;;;;7.81;60.31;100508.84;7974254;28;20583;-66
2021/10/29 07:41:38;;;;;;;11.43;5.82;;;;;;;7.86;60.32;100522.50;7965035;28;20107;-67
2021/10/29 07:45:29;;;;;;;11.98;7.07;;;;;;;7.95;60.33;100527.19;7984888;28;20379;-67
2021/10/29 07:49:26;;;;;;;9.40;5.60;;;;;;;8.00;60.35;100535.59;7973802;28;20447;-67
2021/10/29 07:53:17;;;;;;;8.85;5.30;;;;;;;8.05;60.18;100532.69;7969082;28;20139;-67
2021/10/29 07:57:08;;;;;;;9.45;5.72;;;;;;;8.08;60.24;100546.44;7971978;28;20045;-67
2021/10/29 08:00:59;;;;;;;14.50;6.90;;;;;;;8.14;59.96;100525.16;7972530;28;20559;-67
2021/10/29 08:04:49;;;;;;;10.32;5.50;;;;;;;8.18;60.00;100529.28;7966548;28;20040;-67
2021/10/29 08:08:41;;;;;;;8.52;5.00;;;;;;;8.18;60.11;100526.66;7973850;28;20029;-67
2021/10/29 08:12:35;;;;;;;8.98;4.93;;;;;;;8.28;60.22;100530.41;7971219;28;20025;-67
2021/10/29 08:16:26;;;;;;;13.57;5.43;;;;;;;8.35;60.28;100538.69;7964750;28;20060;-67
2021/10/29 08:20:17;;;;;;;12.32;5.82;;;;;;;8.40;60.13;100529.63;7973244;28;20037;-67
2021/10/29 08:24:10;;;;;;;8.65;5.63;;;;;;;8.49;60.04;100535.22;7972902;28;20045;-68
2021/10/29 08:28:01;;;;;;;8.75;5.28;;;;;;;8.56;60.27;100526.03;7970950;28;20095;-68
2021/10/29 08:31:52;;;;;;;9.35;5.45;;;;;;;8.65;59.94;100507.13;7957373;28;20037;-67
2021/10/29 08:35:43;;;;;;;9.45;5.70;;;;;;;8.73;60.13;100521.44;7976612;28;20041;-68
2021/10/29 08:39:35;;;;;;;10.70;5.60;;;;;;;8.83;60.42;100521.69;7977459;28;20041;-66
2021/10/29 08:43:25;;;;;;;9.88;5.97;;;;;;;8.93;60.20;100521.91;7978868;28;20452;-67
2021/10/29 08:47:21;;;;;;;7.93;5.35;;;;;;;9.04;60.50;100515.03;7978942;28;20072;-67
2021/10/29 08:51:12;;;;;;;10.75;4.80;;;;;;;9.12;60.30;100515.38;7981197;28;20052;-67
2021/10/29 08:55:07;;;;;;;8.93;5.15;;;;;;;9.14;60.05;100507.41;7977894;28;20021;-67
2021/10/29 08:59:07;;;;;;;8.10;4.88;;;;;;;9.21;60.05;100504.28;7977248;28;20037;-68
2021/10/29 09:03:13;;;;;;;7.72;5.22;;;;;;;9.26;60.18;100493.50;7977700;28;20040;-67
2021/10/29 09:07:18;;;;;;;8.70;5.10;;;;;;;9.34;60.19;100493.84;7978211;28;20034;-67
2021/10/29 09:32:22;;;;;;;8.35;5.07;;;;;;;9.64;60.21;100449.84;7977308;28;20502;-67
2021/10/29 09:36:34;;;;;;;9.02;5.22;;;;;;;9.67;59.97;100448.78;7977424;28;20489;-67
2021/10/29 09:40:27;;;;;;;9.48;4.85;;;;;;;9.73;59.92;100437.88;7977111;28;20760;-67
2021/10/29 09:44:19;;;;;;;12.05;5.30;;;;;;;9.75;60.04;100439.44;7975569;28;20493;-67
2021/10/29 09:48:20;;;;;;;7.72;4.95;;;;;;;9.76;59.99;100449.00;7977696;28;20398;-67
2021/10/29 10:00:18;;;;;;;10.98;4.43;;;;;;;9.90;59.92;100444.59;7977265;28;20557;-67
2021/10/29 10:04:09;;;;;;;6.85;4.18;;;;;;;9.92;59.75;100433.03;7970294;28;20824;-67
2021/10/29 10:08:00;;;;;;;8.85;4.40;;;;;;;10.00;59.88;100424.59;7974118;28;20513;-67
2021/10/29 10:11:52;;;;;;;7.32;4.30;;;;;;;10.06;59.77;100414.53;7970410;28;20033;-67
2021/10/29 10:15:43;;;;;;;6.40;3.65;;;;;;;10.12;59.90;100408.00;7974456;28;20033;-68
2021/10/29 10:19:34;;;;;;;7.53;4.25;;;;;;;10.20;59.89;100406.50;7971669;28;20057;-68
2021/10/29 10:23:38;;;;;;;8.88;4.50;;;;;;;10.26;59.87;100405.22;7975161;28;20040;-67
2021/10/29 10:44:58;;;;;;;5.03;3.42;;;;;;;10.63;59.86;100382.41;7974751;28;20041;-67
2021/10/29 10:48:30;;;;;;;7.00;3.67;;;;;;;10.73;59.85;100364.19;7964483;28;20053;-67
2021/10/29 10:52:31;;;;;;;4.75;3.30;;;;;;;10.82;60.03;100350.38;7975948;28;20033;-67
2021/10/29 11:00:31;;;;;;;4.40;3.00;;;;;;;11.06;59.88;100343.25;7975658;28;20034;-66
2021/10/29 11:12:21;;;;;;;6.15;3.10;;;;;;;11.36;59.97;100319.81;7975206;28;20037;-67
2021/10/29 11:16:40;;;;;;;16.60;3.83;;;;;;;11.44;59.83;100309.53;7975772;28;20040;-67
2021/10/29 11:20:40;;;;;;;4.15;3.10;;;;;;;11.52;59.87;100311.59;7967291;28;20041;-67
2021/10/29 11:24:40;;;;;;;4.93;3.22;;;;;;;11.61;59.76;100305.63;7968831;28;20052;-64
2021/10/29 11:28:41;;;;;;;6.00;3.40;;;;;;;11.68;59.54;100313.88;7974337;28;20105;-67
2021/10/29 11:32:31;;;;;;;6.28;3.00;;;;;;;11.71;59.55;100311.00;7973929;28;20553;-67
2021/10/29 11:36:37;;;;;;;5.07;3.00;;;;;;;11.81;59.41;100309.31;7974586;28;20049;-67
2021/10/29 11:40:27;;;;;;;4.47;2.67;;;;;;;11.86;59.08;100301.88;7974601;28;20117;-67
2021/10/29 11:44:21;;;;;;;6.50;2.80;;;;;;;11.93;59.47;100300.44;7974054;28;20029;-67
2021/10/29 11:48:12;;;;;;;3.60;2.22;;;;;;;11.98;59.16;100296.44;7974517;28;20634;-67
2021/10/29 11:52:05;;;;;;;4.05;2.63;;;;;;;12.03;59.21;100293.44;7976209;28;20529;-67
2021/10/29 11:56:02;;;;;;;17.67;6.10;;;;;;;12.07;59.25;100298.34;7973853;28;20057;-67
2021/10/29 12:07:57;;;;;;;4.57;2.45;;;;;;;12.24;58.96;100275.06;7978844;28;20176;-68
2021/10/29 12:12:03;;;;;;;3.92;2.78;;;;;;;12.29;58.94;100268.47;7980350;28;20048;-67
2021/10/29 12:15:55;;;;;;;7.70;2.53;;;;;;;12.35;58.88;100267.13;7980466;28;20108;-67
2021/10/29 12:19:51;;;;;;;4.53;2.67;;;;;;;12.39;58.75;100256.19;7979455;28;20116;-67
2021/10/29 12:23:42;;;;;;;2.63;2.20;;;;;;;12.38;58.82;100244.00;7980070;28;20109;-67
2021/10/29 12:27:39;;;;;;;8.02;2.70;;;;;;;12.45;58.82;100246.94;7968863;28;20034;-67
2021/10/29 12:31:52;;;;;;;6.13;2.80;;;;;;;12.48;59.13;100238.78;7979500;28;20402;-67
2021/10/29 13:04:39;;;;;;;3.50;1.95;;;;;;;12.94;58.58;100186.50;7977527;28;20076;-66
2021/10/29 13:08:30;;;;;;;5.20;2.38;;;;;;;13.07;58.68;100181.00;7978176;28;20048;-68
2021/10/29 13:12:39;;;;;;;3.58;1.73;;;;;;;13.17;58.67;100181.88;7978746;28;20041;-65
2021/10/29 13:16:30;;;;;;;3.90;1.63;;;;;;;13.30;58.59;100165.81;7977313;28;20637;-68
2021/10/29 13:21:38;;;;;;;6.38;1.60;;;;;;;13.42;58.50;100172.63;7976563;28;20454;-68
2021/10/29 13:57:29;;;;;;;2.15;1.50;;;;;;;13.89;57.26;100163.09;7977077;28;20044;-67
2021/10/29 14:30:14;;;;;;;3.97;1.55;;;;;;;14.01;56.58;100140.03;7971871;28;20048;-67
2021/10/29 14:50:29;;;;;;;123.55;31.55;;;;;;;14.03;56.60;100149.47;7975698;28;20064;-67
2021/10/29 15:03:03;;;;;;;2.55;1.77;;;;;;;13.96;56.37;100158.94;7974715;28;20037;-67
2021/10/29 15:47:44;;;;;;;2.45;1.80;;;;;;;13.67;55.79;100161.59;7974581;28;20061;-66
2021/10/29 15:51:36;;;;;;;2.80;1.40;;;;;;;13.63;55.76;100141.72;7962749;28;20040;-66
2021/10/29 15:55:48;;;;;;;1.75;1.45;;;;;;;13.62;55.78;100158.53;7968442;28;20109;-67
2021/10/29 15:59:58;;;;;;;3.20;1.58;;;;;;;13.59;55.80;100164.06;7958086;28;20034;-66
2021/10/29 16:03:59;;;;;;;5.13;2.38;;;;;;;13.56;55.61;100161.69;7959685;28;20107;-67
2021/10/29 16:20:17;;;;;;;5.55;1.80;;;;;;;13.44;55.49;100166.25;7973128;28;20608;-66
2021/10/29 16:24:07;;;;;;;2.13;1.20;;;;;;;13.42;55.53;100160.28;7972510;28;20537;-66
2021/10/29 16:28:01;;;;;;;1.80;1.45;;;;;;;13.38;55.31;100160.69;7971493;28;20114;-67
2021/10/29 16:31:55;;;;;;;1.52;1.30;;;;;;;13.35;55.44;100168.84;7973008;28;20136;-67
2021/10/29 16:35:45;;;;;;;1.88;1.38;;;;;;;13.32;55.32;100169.13;7968087;28;20057;-67
2021/10/29 16:39:36;;;;;;;1.80;1.42;;;;;;;13.28;55.23;100165.09;7972832;28;20045;-67
2021/10/29 16:43:27;;;;;;;2.15;1.40;;;;;;;13.27;55.28;100168.69;7971823;28;20041;-68
2021/10/29 16:47:18;;;;;;;2.35;1.50;;;;;;;13.24;55.20;100161.91;7970827;28;20029;-66
2021/10/29 16:51:08;;;;;;;3.75;2.28;;;;;;;13.23;55.17;100164.66;7968915;28;20045;-68
2021/10/29 16:54:59;;;;;;;2.13;1.40;;;;;;;13.25;54.91;100173.28;7976067;28;20045;-68
2021/10/29 16:58:49;;;;;;;3.08;1.35;;;;;;;13.27;55.21;100174.81;7974576;28;20044;-68
2021/10/29 17:02:40;;;;;;;2.42;1.25;;;;;;;13.28;55.19;100171.22;7976729;28;20059;-68
2021/10/29 17:06:31;;;;;;;2.30;1.27;;;;;;;13.30;55.14;100177.16;7975263;28;20083;-72
2021/10/29 17:10:22;;;;;;;3.65;1.15;;;;;;;13.36;55.17;100184.56;7977065;28;20068;-68
2021/10/29 17:14:13;;;;;;;2.85;1.40;;;;;;;13.40;55.22;100185.94;7977611;28;20041;-72
2021/10/29 17:18:05;;;;;;;3.17;1.30;;;;;;;13.44;54.97;100194.41;7974895;28;20037;-72
2021/10/29 17:21:55;;;;;;;3.78;1.50;;;;;;;13.48;54.75;100197.63;7975910;28;20049;-71
2021/10/29 17:25:46;;;;;;;1.40;1.20;;;;;;;13.50;55.00;100201.81;7974562;28;20040;-68
2021/10/29 17:29:37;;;;;;;1.73;1.38;;;;;;;13.55;54.91;100206.72;7975748;28;20040;-72
2021/10/29 17:33:28;;;;;;;3.33;1.33;;;;;;;13.55;54.90;100198.78;7975959;28;20586;-72
2021/10/29 17:37:18;;;;;;;2.88;1.65;;;;;;;13.59;54.63;100205.47;7974536;28;20071;-72
2021/10/29 17:41:10;;;;;;;2.20;1.42;;;;;;;13.58;54.76;100207.25;7976104;28;20033;-72
2021/10/29 17:45:00;;;;;;;3.47;1.50;;;;;;;13.59;54.48;100210.75;7976040;28;20045;-72
2021/10/29 17:48:51;;;;;;;2.92;1.60;;;;;;;13.60;55.02;100207.94;7974130;28;20039;-71
2021/10/29 17:52:42;;;;;;;3.42;1.90;;;;;;;13.62;54.49;100210.47;7974663;28;20045;-72
2021/10/29 17:56:32;;;;;;;2.05;1.55;;;;;;;13.62;54.50;100221.03;7972984;28;20056;-71
2021/10/29 18:00:23;;;;;;;5.05;1.65;;;;;;;13.58;54.48;100220.47;7976105;28;20042;-72
2021/10/29 18:04:14;;;;;;;4.30;1.80;;;;;;;13.62;54.36;100223.66;7975458;28;20033;-72
2021/10/29 18:08:05;;;;;;;3.33;1.65;;;;;;;13.60;54.37;100231.69;7974757;28;20052;-72
2021/10/29 18:11:56;;;;;;;2.38;1.65;;;;;;;13.60;54.35;100246.69;7975693;28;20106;-71
2021/10/29 18:15:49;;;;;;;5.53;2.13;;;;;;;13.57;54.49;100261.00;7977634;28;20045;-72
2021/10/29 18:19:41;;;;;;;4.78;2.30;;;;;;;13.60;54.57;100268.66;7956649;28;20060;-71
2021/10/29 18:23:32;;;;;;;2.63;1.63;;;;;;;13.59;54.73;100279.34;7972348;28;20041;-72
2021/10/29 18:27:26;;;;;;;4.82;1.42;;;;;;;13.54;54.36;100278.91;7972396;28;20053;-72
2021/10/29 18:31:17;;;;;;;2.50;1.63;;;;;;;13.56;54.47;100284.88;7974503;28;20029;-71
2021/10/29 18:35:07;;;;;;;1.88;1.50;;;;;;;13.50;54.62;100288.88;7974576;28;20107;-72
2021/10/29 18:38:59;;;;;;;1.95;1.52;;;;;;;13.51;54.47;100293.16;7972901;28;20043;-71
2021/10/29 18:42:50;;;;;;;5.32;1.63;;;;;;;13.48;54.54;100287.31;7956816;28;20041;-71
2021/10/29 18:46:41;;;;;;;3.53;2.03;;;;;;;13.49;54.45;100300.41;7973796;28;20553;-71
2021/10/29 18:50:32;;;;;;;2.83;1.52;;;;;;;13.49;54.41;100304.84;7974134;28;20038;-72
2021/10/29 18:54:23;;;;;;;6.45;1.30;;;;;;;13.47;54.68;100299.69;7973597;28;20038;-71
2021/10/29 18:58:13;;;;;;;3.08;1.50;;;;;;;13.42;54.63;100300.09;7972259;28;20060;-70
2021/10/29 19:02:06;;;;;;;3.03;1.38;;;;;;;13.43;54.53;100307.03;7971961;28;20611;-70
2021/10/29 19:05:57;;;;;;;5.13;1.88;;;;;;;13.42;54.74;100313.31;7972906;28;20517;-71
2021/10/29 19:09:48;;;;;;;4.05;1.50;;;;;;;13.42;54.80;100315.94;7973506;28;20041;-71
2021/10/29 19:13:39;;;;;;;2.40;1.25;;;;;;;13.41;54.68;100314.25;7971288;28;20045;-73
2021/10/29 19:17:30;;;;;;;1.98;1.42;;;;;;;13.38;54.57;100317.16;7970927;28;20213;-70
2021/10/29 19:21:22;;;;;;;2.75;1.65;;;;;;;13.38;54.71;100311.91;7971028;28;20146;-71
2021/10/29 19:25:13;;;;;;;4.82;1.40;;;;;;;13.36;54.83;100310.34;7973651;28;20041;-70
2021/10/29 19:29:04;;;;;;;1.50;1.25;;;;;;;13.32;54.93;100317.69;7973182;28;20059;-72
2021/10/29 19:32:55;;;;;;;2.22;1.40;;;;;;;13.31;54.97;100313.38;7967091;28;20393;-71
2021/10/29 19:36:50;;;;;;;3.42;1.33;;;;;;;13.33;55.26;100310.59;7971921;28;20037;-71
2021/10/29 19:40:47;;;;;;;2.33;1.50;;;;;;;13.33;55.36;100323.81;7973778;28;20494;-71
2021/10/29 19:44:38;;;;;;;3.05;1.60;;;;;;;13.33;55.30;100323.81;7972471;28;20047;-71
2021/10/29 19:48:29;;;;;;;2.00;1.30;;;;;;;13.33;56.01;100329.06;7971824;28;20040;-71
2021/10/29 19:52:21;;;;;;;2.90;1.10;;;;;;;13.35;55.28;100332.41;7973327;28;20063;-71
2021/10/29 19:56:12;;;;;;;1.10;1.00;;;;;;;13.33;55.31;100334.34;7972887;28;20039;-71
2021/10/29 20:00:06;;;;;;;2.35;1.33;;;;;;;13.33;55.39;100342.25;7972817;28;20121;-72
2021/10/29 20:04:02;;;;;;;1.88;1.05;;;;;;;13.37;55.44;100348.94;7973745;28;20032;-70
2021/10/29 20:07:53;;;;;;;1.63;1.00;;;;;;;13.34;55.47;100343.94;7972405;28;20033;-69
2021/10/29 20:11:44;;;;;;;2.88;1.27;;;;;;;13.38;55.44;100342.72;7973136;28;20045;-70
2021/10/29 20:15:36;;;;;;;2.58;1.52;;;;;;;13.37;55.61;100341.88;7988864;28;20574;-70
2021/10/29 20:19:27;;;;;;;2.03;1.17;;;;;;;13.34;55.80;100336.88;7969650;28;20057;-71
2021/10/29 20:23:18;;;;;;;2.70;1.50;;;;;;;13.32;55.73;100328.25;7969521;28;20042;-72
2021/10/29 20:27:09;;;;;;;3.17;1.52;;;;;;;13.35;55.48;100337.69;7974204;28;20453;-72
2021/10/29 20:31:00;;;;;;;2.17;1.40;;;;;;;13.29;55.77;100343.50;7979185;28;20504;-72
2021/10/29 20:34:51;;;;;;;3.05;1.63;;;;;;;13.31;55.90;100350.31;7980018;28;20033;-71
2021/10/29 20:38:41;;;;;;;2.42;1.55;;;;;;;13.29;56.06;100352.25;7978476;28;20487;-70
2021/10/29 20:42:32;;;;;;;4.38;1.58;;;;;;;13.30;55.90;100359.19;7979567;28;20029;-73
2021/10/29 20:46:22;;;;;;;1.67;1.20;;;;;;;13.28;55.84;100358.47;7979825;28;20033;-71
2021/10/29 20:50:13;;;;;;;1.92;1.33;;;;;;;13.26;56.10;100359.59;7973649;28;20041;-71
2021/10/29 20:54:05;;;;;;;2.80;1.45;;;;;;;13.28;56.24;100355.00;7975583;28;20444;-71
2021/10/29 20:57:55;;;;;;;2.35;1.33;;;;;;;13.25;56.16;100355.28;7973151;28;20030;-72
2021/10/29 21:01:46;;;;;;;1.83;1.33;;;;;;;13.24;56.32;100338.63;7976733;28;20065;-70
2021/10/29 21:05:40;;;;;;;1.42;1.15;;;;;;;13.22;56.05;100324.69;7977020;28;20021;-72
2021/10/29 21:09:31;;;;;;;2.42;1.63;;;;;;;13.14;55.99;100321.88;7977165;28;20037;-72
2021/10/29 21:13:22;;;;;;;1.77;1.30;;;;;;;13.17;56.15;100345.38;7981482;28;20124;-71
2021/10/29 21:17:13;;;;;;;1.83;1.30;;;;;;;13.16;56.40;100343.72;7977791;28;20425;-71
2021/10/29 21:21:04;;;;;;;1.20;1.10;;;;;;;13.16;56.40;100342.88;7972463;28;20039;-71
2021/10/29 21:24:54;;;;;;;3.00;1.17;;;;;;;13.14;56.32;100343.00;7954221;28;20095;-71
2021/10/29 21:28:45;;;;;;;4.55;1.70;;;;;;;13.15;56.37;100351.72;7975021;28;20082;-72
2021/10/29 21:32:36;;;;;;;2.10;1.45;;;;;;;13.10;56.36;100352.13;7969952;28;20107;-66
2021/10/29 21:36:26;;;;;;;3.33;1.60;;;;;;;13.06;56.24;100342.81;7975987;28;20036;-68
2021/10/29 21:40:17;;;;;;;2.30;1.20;;;;;;;13.07;56.23;100336.56;7975952;28;20132;-68
2021/10/29 21:44:08;;;;;;;1.52;1.23;;;;;;;13.08;56.55;100340.03;7977715;28;20030;-67
2021/10/29 21:47:58;;;;;;;1.20;1.15;;;;;;;13.06;56.34;100347.25;7977880;28;20033;-68
2021/10/29 21:51:49;;;;;;;1.67;1.27;;;;;;;13.05;56.48;100342.94;7976428;28;20119;-69
2021/10/29 21:55:40;;;;;;;1.80;1.40;;;;;;;13.06;56.72;100331.41;7976303;28;20091;-68
2021/10/29 21:59:30;;;;;;;2.30;1.38;;;;;;;13.06;56.67;100340.16;7977787;28;20063;-67
2021/10/29 22:03:22;;;;;;;6.43;1.40;;;;;;;13.06;56.52;100337.53;7976739;28;20509;-68
2021/10/29 22:07:13;;;;;;;2.22;1.17;;;;;;;13.02;56.75;100327.38;7977418;28;20084;-68
2021/10/29 22:11:04;;;;;;;2.88;1.30;;;;;;;13.04;56.46;100328.94;7977360;28;20445;-68
2021/10/29 22:14:54;;;;;;;2.15;1.50;;;;;;;13.01;56.67;100323.94;7976605;28;20530;-68
2021/10/29 22:18:46;;;;;;;2.25;1.63;;;;;;;13.05;56.79;100321.84;7959213;28;20026;-68
2021/10/29 22:22:38;;;;;;;2.75;1.40;;;;;;;13.05;56.63;100322.69;7975109;28;20037;-69
2021/10/29 22:26:31;;;;;;;2.28;1.30;;;;;;;12.98;56.85;100300.44;7976309;28;20121;-67
2021/10/29 22:30:23;;;;;;;1.45;1.13;;;;;;;13.06;56.74;100326.97;7976452;28;20084;-68
2021/10/29 22:34:13;;;;;;;3.92;1.50;;;;;;;13.06;56.80;100324.34;7976744;28;20068;-68
2021/10/29 22:38:04;;;;;;;1.52;1.17;;;;;;;13.06;56.64;100331.41;7975729;28;20402;-67
2021/10/29 22:41:54;;;;;;;2.42;1.33;;;;;;;13.03;56.72;100324.63;7975055;28;20120;-68
2021/10/29 22:45:45;;;;;;;3.58;1.20;;;;;;;13.02;56.77;100336.13;7975739;28;20116;-68
2021/10/29 22:49:36;;;;;;;2.67;1.40;;;;;;;13.02;56.74;100340.56;7975559;28;20025;-68
2021/10/29 22:53:26;;;;;;;3.70;1.67;;;;;;;13.03;56.84;100340.44;7976077;28;20055;-67
2021/10/29 22:57:18;;;;;;;2.25;1.52;;;;;;;13.03;56.73;100339.59;7975643;28;20041;-66